createdAt,value
2023-05-23T00:02:16.548Z,16.40
2023-05-23T00:04:44.617Z,16.30
2023-05-23T00:07:13.935Z,16.30
2023-05-23T00:09:41.894Z,16.20
2023-05-23T00:12:10.487Z,16.20
2023-05-23T00:14:40.246Z,16.20
2023-05-23T00:17:10.677Z,16.10
2023-05-23T00:19:38.836Z,16.10
2023-05-23T00:22:06.935Z,16.10
2023-05-23T00:24:36.237Z,16.00
2023-05-23T00:27:04.657Z,16.00
2023-05-23T00:29:32.545Z,15.90
2023-05-23T00:32:00.468Z,15.90
2023-05-23T00:34:28.388Z,15.90
2023-05-23T00:36:56.457Z,15.80
2023-05-23T00:39:24.580Z,15.80
2023-05-23T00:41:54.066Z,15.70
2023-05-23T00:44:22.705Z,15.70
2023-05-23T00:46:54.625Z,15.70
2023-05-23T00:49:23.026Z,15.60
2023-05-23T00:51:51.999Z,15.50
2023-05-23T00:54:24.954Z,15.50
2023-05-23T00:56:54.761Z,15.50
2023-05-23T00:59:24.258Z,15.50
2023-05-23T01:01:53.172Z,15.60
2023-05-23T01:04:21.458Z,15.60
2023-05-23T01:06:49.580Z,15.70
2023-05-23T01:09:18.632Z,15.80
2023-05-23T01:11:54.023Z,15.80
2023-05-23T01:14:30.639Z,15.90
2023-05-23T01:17:01.984Z,16.00
2023-05-23T01:19:50.118Z,16.00
2023-05-23T01:22:26.190Z,16.00
2023-05-23T01:25:02.305Z,16.10
2023-05-23T01:27:39.652Z,16.10
2023-05-23T01:30:11.739Z,16.10
2023-05-23T01:32:41.179Z,16.20
2023-05-23T01:35:11.188Z,16.20
2023-05-23T01:37:39.141Z,16.20
2023-05-23T01:40:08.114Z,16.30
2023-05-23T01:42:36.054Z,16.30
2023-05-23T01:45:06.295Z,16.30
2023-05-23T01:47:34.839Z,16.30
2023-05-23T01:50:04.362Z,16.30
2023-05-23T01:52:32.478Z,16.30
2023-05-23T01:55:01.091Z,16.30
2023-05-23T01:57:30.962Z,16.30
2023-05-23T01:59:59.008Z,16.30
2023-05-23T02:02:28.347Z,16.30
2023-05-23T02:04:58.088Z,16.20
2023-05-23T02:07:25.963Z,16.20
2023-05-23T02:09:53.996Z,16.20
2023-05-23T02:12:21.996Z,16.20
2023-05-23T02:14:52.158Z,16.20
2023-05-23T02:17:22.212Z,16.20
2023-05-23T02:19:51.800Z,16.10
2023-05-23T02:22:23.651Z,16.10
2023-05-23T02:24:51.918Z,16.10
2023-05-23T02:27:19.895Z,16.10
2023-05-23T02:29:47.841Z,16.10
2023-05-23T02:32:15.938Z,16.10
2023-05-23T02:34:46.706Z,16.10
2023-05-23T02:37:16.414Z,16.10
2023-05-23T02:39:44.512Z,16.10
2023-05-23T02:42:12.446Z,16.10
2023-05-23T02:44:40.316Z,16.10
2023-05-23T02:47:08.500Z,16.10
2023-05-23T02:49:36.426Z,16.10
2023-05-23T02:52:04.340Z,16.10
2023-05-23T02:54:33.619Z,16.00
2023-05-23T02:57:01.489Z,16.00
2023-05-23T02:59:29.677Z,16.10
2023-05-23T03:01:57.827Z,16.10
2023-05-23T03:04:26.155Z,16.00
2023-05-23T03:06:54.319Z,16.00
2023-05-23T03:09:22.480Z,16.00
2023-05-23T03:11:52.156Z,15.90
2023-05-23T03:14:20.206Z,16.00
2023-05-23T03:16:48.298Z,15.90
2023-05-23T03:19:16.948Z,15.90
2023-05-23T03:21:45.273Z,15.90
2023-05-23T03:24:13.243Z,15.90
2023-05-23T03:26:41.113Z,15.90
2023-05-23T03:29:11.149Z,15.90
2023-05-23T03:31:39.245Z,15.90
2023-05-23T03:34:07.370Z,15.90
2023-05-23T03:36:39.238Z,15.80
2023-05-23T03:39:07.471Z,15.80
2023-05-23T03:48:30.377Z,15.80
2023-05-23T03:50:58.272Z,15.70
2023-05-23T03:53:26.195Z,15.60
2023-05-23T03:55:54.619Z,15.60
2023-05-23T03:58:22.507Z,15.60
2023-05-23T04:00:50.588Z,15.60
2023-05-23T04:03:18.672Z,15.60
2023-05-23T04:05:47.989Z,15.50
2023-05-23T04:08:16.333Z,15.50
2023-05-23T04:10:44.471Z,15.50
2023-05-23T04:13:12.429Z,15.50
2023-05-23T04:15:41.225Z,15.50
2023-05-23T04:18:10.632Z,15.50
2023-05-23T04:20:38.606Z,15.50
2023-05-23T04:23:07.916Z,15.60
2023-05-23T04:25:35.895Z,15.60
2023-05-23T04:28:05.331Z,15.50
2023-05-23T04:30:33.387Z,15.60
2023-05-23T04:33:01.615Z,15.60
2023-05-23T04:35:29.752Z,15.60
2023-05-23T04:37:57.843Z,15.60
2023-05-23T04:40:27.166Z,15.60
2023-05-23T04:42:55.545Z,15.70
2023-05-23T04:45:23.662Z,15.70
2023-05-23T04:47:54.850Z,15.70
2023-05-23T04:50:23.320Z,15.70
2023-05-23T04:52:51.265Z,15.70
2023-05-23T04:55:20.098Z,15.70
2023-05-23T04:57:49.480Z,15.60
2023-05-23T05:00:18.544Z,15.60
2023-05-23T05:02:46.560Z,15.60
2023-05-23T05:05:14.569Z,15.70
2023-05-23T05:07:42.461Z,15.70
2023-05-23T05:10:16.808Z,15.70
2023-05-23T05:12:45.372Z,15.70
2023-05-23T05:15:15.002Z,15.70
2023-05-23T05:17:43.302Z,15.70
2023-05-23T05:20:12.258Z,15.60
2023-05-23T05:22:42.974Z,15.70
2023-05-23T05:25:12.023Z,15.60
2023-05-23T05:27:41.128Z,15.60
2023-05-23T05:30:11.159Z,15.60
2023-05-23T05:32:40.572Z,15.60
2023-05-23T05:35:10.024Z,15.60
2023-05-23T05:37:37.899Z,15.60
2023-05-23T05:40:08.457Z,15.50
2023-05-23T05:42:36.448Z,15.60
2023-05-23T05:45:04.814Z,15.60
2023-05-23T05:47:32.921Z,15.60
2023-05-23T05:50:03.395Z,15.60
2023-05-23T05:52:31.337Z,15.60
2023-05-23T05:54:59.326Z,15.60
2023-05-23T05:57:27.434Z,15.60
2023-05-23T05:59:55.379Z,15.60
2023-05-23T06:02:23.506Z,15.60
2023-05-23T06:04:51.589Z,15.60
2023-05-23T06:07:20.880Z,15.60
2023-05-23T06:09:48.819Z,15.60
2023-05-23T06:12:16.817Z,15.60
2023-05-23T06:14:44.732Z,15.60
2023-05-23T06:17:14.504Z,15.60
2023-05-23T06:19:44.810Z,15.60
2023-05-23T06:22:13.151Z,15.50
2023-05-23T06:24:42.522Z,15.50
2023-05-23T06:27:10.412Z,15.50
2023-05-23T06:29:38.334Z,15.60
2023-05-23T06:32:07.251Z,15.60
2023-05-23T06:34:35.303Z,15.60
2023-05-23T06:37:03.308Z,15.60
2023-05-23T06:39:31.264Z,15.60
2023-05-23T06:42:01.161Z,15.60
2023-05-23T06:44:29.314Z,15.60
2023-05-23T06:46:58.838Z,15.60
2023-05-23T06:49:26.922Z,15.60
2023-05-23T06:51:55.156Z,15.60
2023-05-23T06:54:23.207Z,15.60
2023-05-23T06:56:51.212Z,15.50
2023-05-23T06:59:21.052Z,15.60
2023-05-23T07:01:49.262Z,15.60
2023-05-23T07:04:17.491Z,15.60
2023-05-23T07:06:45.397Z,15.60
2023-05-23T07:09:13.824Z,15.60
2023-05-23T07:11:42.079Z,15.70
2023-05-23T07:14:10.067Z,15.90
2023-05-23T07:16:39.562Z,16.00
2023-05-23T07:19:07.625Z,16.10
2023-05-23T07:21:36.212Z,16.10
2023-05-23T07:24:04.212Z,16.10
2023-05-23T07:26:32.104Z,16.20
2023-05-23T07:29:00.313Z,16.30
2023-05-23T07:31:28.362Z,16.30
2023-05-23T07:33:57.655Z,16.30
2023-05-23T07:36:25.626Z,16.30
2023-05-23T07:38:53.997Z,16.40
2023-05-23T07:41:22.059Z,16.30
2023-05-23T07:43:50.047Z,16.20
2023-05-23T07:46:18.167Z,16.20
2023-05-23T07:48:46.587Z,16.10
2023-05-23T07:51:19.041Z,16.00
2023-05-23T07:53:46.960Z,16.00
2023-05-23T07:56:15.170Z,16.00
2023-05-23T07:58:43.142Z,16.10
2023-05-23T08:01:11.195Z,16.00
2023-05-23T08:03:39.141Z,16.10
2023-05-23T08:06:07.627Z,16.20
2023-05-23T08:08:37.920Z,16.20
2023-05-23T08:11:06.142Z,16.20
2023-05-23T08:13:34.563Z,16.20
2023-05-23T08:16:02.608Z,16.20
2023-05-23T08:18:31.073Z,16.20
2023-05-23T08:20:59.056Z,16.10
2023-05-23T08:23:26.974Z,16.20
2023-05-23T08:25:57.210Z,16.20
2023-05-23T08:28:25.296Z,16.20
2023-05-23T08:30:53.951Z,16.20
2023-05-23T08:33:21.940Z,16.20
2023-05-23T08:35:49.883Z,16.20
2023-05-23T08:38:18.306Z,16.20
2023-05-23T08:40:51.899Z,16.20
2023-05-23T08:43:21.408Z,16.10
2023-05-23T08:45:52.702Z,16.10
2023-05-23T08:48:21.936Z,16.00
2023-05-23T08:50:51.967Z,16.00
2023-05-23T08:53:22.095Z,16.00
2023-05-23T08:55:51.716Z,16.00
2023-05-23T08:58:22.640Z,16.00
2023-05-23T09:00:52.276Z,15.90
2023-05-23T09:03:21.122Z,15.80
2023-05-23T09:05:51.471Z,15.80
2023-05-23T09:08:19.708Z,15.80
2023-05-23T09:10:49.888Z,15.80
2023-05-23T09:13:20.382Z,15.80
2023-05-23T09:16:02.987Z,15.80
2023-05-23T09:18:36.095Z,15.80
2023-05-23T09:21:04.945Z,15.90
2023-05-23T09:23:33.165Z,15.90
2023-05-23T09:26:06.364Z,16.00
2023-05-23T09:28:35.478Z,16.10
2023-05-23T09:31:07.100Z,16.10
2023-05-23T09:33:39.925Z,16.10
2023-05-23T09:36:08.558Z,16.00
2023-05-23T09:38:40.327Z,15.90
2023-05-23T09:41:08.523Z,15.80
2023-05-23T09:43:36.515Z,15.70
2023-05-23T09:46:10.524Z,15.70
2023-05-23T09:48:38.499Z,15.60
2023-05-23T09:51:06.984Z,15.60
2023-05-23T09:53:34.984Z,15.60
2023-05-23T09:56:04.435Z,15.50
2023-05-23T09:58:34.120Z,15.40
2023-05-23T10:01:04.138Z,15.40
2023-05-23T10:03:37.982Z,15.40
2023-05-23T10:06:09.624Z,15.40
2023-05-23T10:08:40.851Z,15.30
2023-05-23T10:11:51.685Z,15.20
2023-05-23T10:14:20.087Z,15.20
2023-05-23T10:17:05.041Z,15.20
2023-05-23T10:19:39.957Z,15.30
2023-05-23T10:22:10.261Z,15.40
2023-05-23T10:24:38.762Z,15.50
2023-05-23T10:27:07.689Z,15.60
2023-05-23T10:29:36.986Z,15.70
2023-05-23T10:32:07.480Z,15.90
2023-05-23T10:34:43.113Z,16.10
2023-05-23T10:37:18.469Z,16.40
2023-05-23T10:39:55.957Z,16.70
2023-05-23T10:42:33.941Z,17.20
2023-05-23T10:45:19.113Z,17.50
2023-05-23T10:47:48.665Z,17.70
2023-05-23T10:50:33.771Z,17.70
2023-05-23T10:53:03.178Z,17.80
2023-05-23T10:55:33.754Z,18.00
2023-05-23T10:58:12.734Z,18.10
2023-05-23T11:00:40.956Z,18.30
2023-05-23T11:03:11.607Z,18.60
2023-05-23T11:05:53.568Z,18.80
2023-05-23T11:08:22.451Z,18.90
2023-05-23T11:10:55.285Z,18.90
2023-05-23T11:13:24.172Z,18.90
2023-05-23T11:15:52.609Z,18.70
2023-05-23T11:18:25.636Z,18.30
2023-05-23T11:20:56.078Z,17.90
2023-05-23T11:23:25.151Z,17.60
2023-05-23T11:25:53.971Z,17.50
2023-05-23T11:28:22.023Z,17.30
2023-05-23T11:30:51.171Z,17.40
2023-05-23T11:33:20.895Z,17.40
2023-05-23T11:35:51.847Z,17.40
2023-05-23T11:38:21.468Z,17.50
2023-05-23T11:40:49.560Z,17.40
2023-05-23T11:43:19.735Z,17.40
2023-05-23T11:45:48.358Z,17.30
2023-05-23T11:48:18.182Z,17.20
2023-05-23T11:50:48.903Z,17.20
2023-05-23T11:53:20.576Z,17.30
2023-05-23T11:55:55.229Z,17.40
2023-05-23T11:58:27.837Z,17.60
2023-05-23T12:01:00.444Z,17.90
2023-05-23T12:03:28.672Z,18.20
2023-05-23T12:05:57.080Z,18.70
2023-05-23T12:08:26.204Z,19.10
2023-05-23T12:10:59.151Z,19.30
2023-05-23T12:13:29.068Z,19.50
2023-05-23T12:15:58.577Z,19.80
2023-05-23T12:18:30.118Z,20.00
2023-05-23T12:21:01.249Z,20.00
2023-05-23T12:23:31.756Z,19.80
2023-05-23T12:26:06.732Z,19.50
2023-05-23T12:28:38.995Z,19.30
2023-05-23T12:31:12.406Z,19.20
2023-05-23T12:33:41.284Z,19.20
2023-05-23T12:36:09.332Z,19.30
2023-05-23T12:38:40.589Z,19.30
2023-05-23T12:41:16.761Z,19.40
2023-05-23T12:43:51.611Z,19.40
2023-05-23T12:46:19.970Z,19.30
2023-05-23T12:48:48.366Z,19.10
2023-05-23T12:51:16.622Z,19.10
2023-05-23T12:53:44.994Z,19.10
2023-05-23T12:56:14.457Z,19.10
2023-05-23T12:58:43.006Z,19.10
2023-05-23T13:01:11.269Z,19.00
2023-05-23T13:03:39.436Z,19.00
2023-05-23T13:06:08.323Z,19.10
2023-05-23T13:08:36.322Z,19.00
2023-05-23T13:11:05.536Z,18.80
2023-05-23T13:13:34.812Z,18.70
2023-05-23T13:16:03.010Z,18.70
2023-05-23T13:18:30.968Z,18.70
2023-05-23T13:20:58.920Z,18.70
2023-05-23T13:23:28.075Z,18.80
2023-05-23T13:25:57.913Z,18.90
2023-05-23T13:28:26.095Z,18.90
2023-05-23T13:30:55.940Z,19.00
2023-05-23T13:33:24.322Z,19.00
2023-05-23T13:35:52.955Z,19.20
2023-05-23T13:38:21.262Z,19.40
2023-05-23T13:40:51.649Z,19.70
2023-05-23T13:43:19.781Z,20.00
2023-05-23T13:45:48.488Z,20.20
2023-05-23T13:48:17.770Z,20.20
2023-05-23T13:50:46.207Z,20.20
2023-05-23T13:53:16.877Z,20.10
2023-05-23T13:55:45.384Z,20.00
2023-05-23T13:58:13.815Z,19.80
2023-05-23T14:00:41.963Z,19.60
2023-05-23T14:03:10.856Z,19.60
2023-05-23T14:05:40.431Z,19.50
2023-05-23T14:08:08.577Z,19.40
2023-05-23T14:10:36.565Z,19.40
2023-05-23T14:13:04.733Z,19.40
2023-05-23T14:15:34.585Z,19.40
2023-05-23T14:18:03.000Z,19.40
2023-05-23T14:20:31.960Z,19.60
2023-05-23T14:23:01.461Z,19.60
2023-05-23T14:25:29.430Z,19.40
2023-05-23T14:27:57.455Z,19.20
2023-05-23T14:30:25.382Z,19.10
2023-05-23T14:32:54.256Z,19.10
2023-05-23T14:35:23.046Z,19.10
2023-05-23T14:37:50.982Z,19.00
2023-05-23T14:40:20.601Z,18.90
2023-05-23T14:42:48.642Z,19.00
2023-05-23T14:45:18.715Z,19.00
2023-05-23T14:47:47.046Z,19.10
2023-05-23T14:50:15.906Z,19.30
2023-05-23T14:52:43.862Z,19.50
2023-05-23T14:55:12.304Z,19.50
2023-05-23T14:57:41.701Z,19.50
2023-05-23T15:00:11.566Z,19.50
2023-05-23T15:02:39.919Z,19.60
2023-05-23T15:05:08.822Z,19.70
2023-05-23T15:07:38.564Z,19.80
2023-05-23T15:10:08.391Z,19.60
2023-05-23T15:12:36.374Z,19.60
2023-05-23T15:15:06.457Z,19.40
2023-05-23T15:17:35.215Z,19.30
2023-05-23T15:20:06.045Z,19.10
2023-05-23T15:22:39.466Z,18.90
2023-05-23T15:25:09.181Z,18.70
2023-05-23T15:27:37.355Z,18.70
2023-05-23T15:30:08.137Z,18.70
2023-05-23T15:32:36.253Z,18.70
2023-05-23T15:35:04.364Z,18.70
2023-05-23T15:37:32.316Z,18.80
2023-05-23T15:40:00.306Z,18.90
2023-05-23T15:42:28.236Z,18.90
2023-05-23T15:44:56.345Z,19.00
2023-05-23T15:47:25.768Z,19.00
2023-05-23T15:49:53.743Z,18.90
2023-05-23T15:52:21.761Z,18.90
2023-05-23T15:54:49.749Z,19.00
2023-05-23T15:57:17.904Z,19.20
2023-05-23T15:59:45.880Z,19.20
2023-05-23T16:02:16.336Z,19.30
2023-05-23T16:04:45.633Z,19.50
2023-05-23T16:07:13.529Z,19.60
2023-05-23T16:09:41.506Z,19.70
2023-05-23T16:12:10.233Z,19.70
2023-05-23T16:14:38.319Z,19.80
2023-05-23T16:17:09.828Z,19.90
2023-05-23T16:19:38.032Z,19.90
2023-05-23T16:22:07.563Z,20.00
2023-05-23T16:24:35.552Z,20.10
2023-05-23T16:27:03.923Z,20.30
2023-05-23T16:29:31.921Z,20.40
2023-05-23T16:32:00.131Z,20.50
2023-05-23T16:34:28.573Z,20.50
2023-05-23T16:36:56.538Z,20.50
2023-05-23T16:39:26.274Z,20.50
2023-05-23T16:41:54.741Z,20.40
2023-05-23T16:44:22.761Z,20.30
2023-05-23T16:46:52.342Z,20.20
2023-05-23T16:49:20.454Z,20.20
2023-05-23T16:51:48.870Z,20.00
2023-05-23T16:54:17.119Z,19.80
2023-05-23T16:56:46.542Z,19.60
2023-05-23T16:59:14.600Z,19.20
2023-05-23T17:01:42.854Z,19.00
2023-05-23T17:04:10.873Z,18.70
2023-05-23T17:06:38.866Z,18.60
2023-05-23T17:09:07.163Z,18.40
2023-05-23T17:11:35.169Z,18.40
2023-05-23T17:14:04.461Z,18.30
2023-05-23T17:16:33.684Z,18.20
2023-05-23T17:19:02.307Z,18.10
2023-05-23T17:21:31.357Z,17.90
2023-05-23T17:23:59.499Z,17.80
2023-05-23T17:26:28.194Z,17.70
2023-05-23T17:28:56.233Z,17.60
2023-05-23T17:31:26.010Z,17.50
2023-05-23T17:33:54.893Z,17.40
2023-05-23T17:36:23.066Z,17.20
2023-05-23T17:38:53.593Z,17.00
2023-05-23T17:41:23.122Z,16.90
2023-05-23T17:43:51.319Z,16.90
2023-05-23T17:46:19.416Z,16.90
2023-05-23T17:48:48.792Z,16.90
2023-05-23T17:51:17.026Z,16.80
2023-05-23T17:53:44.978Z,16.90
2023-05-23T17:56:12.954Z,16.90
2023-05-23T17:58:43.264Z,17.00
2023-05-23T18:01:13.662Z,16.90
2023-05-23T18:03:41.854Z,16.90
2023-05-23T18:06:11.259Z,16.90
2023-05-23T18:08:39.300Z,16.80
2023-05-23T18:11:07.338Z,16.70
2023-05-23T18:13:35.330Z,16.70
2023-05-23T18:16:03.397Z,16.60
2023-05-23T18:18:31.751Z,16.50
2023-05-23T18:20:59.838Z,16.50
2023-05-23T18:23:29.404Z,16.40
2023-05-23T18:25:57.760Z,16.30
2023-05-23T18:28:25.906Z,16.20
2023-05-23T18:30:53.926Z,16.10
2023-05-23T18:33:22.194Z,16.00
2023-05-23T18:35:51.662Z,16.00
2023-05-23T18:38:19.693Z,15.90
2023-05-23T18:40:49.020Z,15.90
2023-05-23T18:43:17.480Z,15.80
2023-05-23T18:45:46.078Z,15.70
2023-05-23T18:48:14.669Z,15.70
2023-05-23T18:50:42.914Z,15.60
2023-05-23T18:53:11.232Z,15.60
2023-05-23T18:55:39.269Z,15.50
2023-05-23T18:58:08.551Z,15.50
2023-05-23T19:00:36.847Z,15.40
2023-05-23T19:03:05.829Z,15.30
2023-05-23T19:05:33.921Z,15.20
2023-05-23T19:08:03.287Z,15.10
2023-05-23T19:10:31.175Z,15.10
2023-05-23T19:12:59.229Z,15.00
2023-05-23T19:15:28.542Z,14.90
2023-05-23T19:17:56.759Z,14.90
2023-05-23T19:20:24.800Z,14.80
2023-05-23T19:22:52.961Z,14.80
2023-05-23T19:25:21.516Z,14.70
2023-05-23T19:27:49.630Z,14.70
2023-05-23T19:30:17.608Z,14.60
2023-05-23T19:32:46.974Z,14.50
2023-05-23T19:35:16.815Z,14.50
2023-05-23T19:37:45.294Z,14.40
2023-05-23T19:40:14.017Z,14.30
2023-05-23T19:42:42.109Z,14.30
2023-05-23T19:45:10.772Z,14.20
2023-05-23T19:47:38.760Z,14.20
2023-05-23T19:50:10.713Z,14.10
2023-05-23T19:52:38.666Z,14.00
2023-05-23T19:55:08.490Z,14.00
2023-05-23T19:57:36.551Z,13.90
2023-05-23T20:00:06.190Z,13.80
2023-05-23T20:02:34.131Z,13.80
2023-05-23T20:05:02.147Z,13.70
2023-05-23T20:07:31.600Z,13.70
2023-05-23T20:09:59.542Z,13.60
2023-05-23T20:12:27.488Z,13.50
2023-05-23T20:14:55.813Z,13.50
2023-05-23T20:17:23.918Z,13.40
2023-05-23T20:19:51.911Z,13.40
2023-05-23T20:22:19.832Z,13.40
2023-05-23T20:24:49.212Z,13.30
2023-05-23T20:27:17.121Z,13.20
2023-05-23T20:29:45.180Z,13.20
2023-05-23T20:32:13.080Z,13.10
2023-05-23T20:34:41.359Z,13.10
2023-05-23T20:37:09.424Z,13.10
2023-05-23T20:39:37.673Z,13.00
2023-05-23T20:42:10.348Z,13.00
2023-05-23T20:44:38.790Z,13.00
2023-05-23T20:47:07.268Z,12.90
2023-05-23T20:49:37.335Z,12.90
2023-05-23T20:52:06.696Z,12.80
2023-05-23T20:54:35.666Z,12.70
2023-05-23T20:57:03.758Z,12.80
2023-05-23T20:59:33.014Z,12.70
2023-05-23T21:02:01.014Z,12.70
2023-05-23T21:04:29.082Z,12.60
2023-05-23T21:06:57.099Z,12.60
2023-05-23T21:09:25.045Z,12.60
2023-05-23T21:11:53.008Z,12.50
2023-05-23T21:14:20.936Z,12.50
2023-05-23T21:16:50.330Z,12.50
2023-05-23T21:19:18.428Z,12.50
2023-05-23T21:21:46.361Z,12.50
2023-05-23T21:24:15.297Z,12.40
2023-05-23T21:26:43.523Z,12.40
2023-05-23T21:29:11.621Z,12.30
2023-05-23T21:31:41.951Z,12.30
2023-05-23T21:34:23.334Z,12.30
2023-05-23T21:36:52.512Z,12.20
2023-05-23T21:39:20.664Z,12.10
2023-05-23T21:41:48.647Z,12.10
2023-05-23T21:44:17.602Z,12.00
2023-05-23T21:46:46.114Z,12.00
2023-05-23T21:49:15.627Z,12.00
2023-05-23T21:51:44.902Z,11.90
2023-05-23T21:54:12.820Z,11.90
2023-05-23T21:56:41.081Z,11.90
2023-05-23T21:59:09.114Z,11.80
2023-05-23T22:01:37.196Z,11.80
2023-05-23T22:04:05.325Z,11.70
2023-05-23T22:06:34.869Z,11.70
2023-05-23T22:09:02.891Z,11.70
2023-05-23T22:11:34.050Z,11.70
2023-05-23T22:14:02.348Z,11.60
2023-05-23T22:16:32.855Z,11.60
2023-05-23T22:19:02.012Z,11.50
2023-05-23T22:21:30.201Z,11.50
2023-05-23T22:24:00.233Z,11.40
2023-05-23T22:26:28.489Z,11.40
2023-05-23T22:28:56.719Z,11.40
2023-05-23T22:31:25.022Z,11.30
2023-05-23T22:33:53.206Z,11.30
2023-05-23T22:36:22.405Z,11.20
2023-05-23T22:38:50.412Z,11.20
2023-05-23T22:41:19.953Z,11.20
2023-05-23T22:43:48.119Z,11.10
2023-05-23T22:46:16.163Z,11.10
2023-05-23T22:48:45.108Z,11.10
2023-05-23T22:51:14.626Z,11.00
2023-05-23T22:53:43.362Z,11.00
2023-05-23T22:56:11.404Z,10.90
2023-05-23T22:58:40.749Z,10.90
2023-05-23T23:01:09.002Z,10.90
2023-05-23T23:03:37.092Z,10.80
2023-05-23T23:06:07.485Z,10.80
2023-05-23T23:08:35.478Z,10.80
2023-05-23T23:11:03.413Z,10.80
2023-05-23T23:13:31.409Z,10.70
2023-05-23T23:16:00.760Z,10.70
2023-05-23T23:18:28.810Z,10.60
2023-05-23T23:20:56.701Z,10.60
2023-05-23T23:23:24.793Z,10.60
2023-05-23T23:25:52.808Z,10.50
2023-05-23T23:28:21.081Z,10.50
2023-05-23T23:30:49.165Z,10.50
2023-05-23T23:33:18.470Z,10.40
2023-05-23T23:35:48.448Z,10.40
2023-05-23T23:38:17.039Z,10.40
2023-05-23T23:40:45.784Z,10.30
2023-05-23T23:43:14.151Z,10.30
2023-05-23T23:45:42.130Z,10.30
2023-05-23T23:48:10.624Z,10.20
2023-05-23T23:50:40.265Z,10.20
2023-05-23T23:53:09.030Z,10.20
2023-05-23T23:55:36.965Z,10.10
2023-05-23T23:58:04.945Z,10.10
